sensor_id;sensor_type;location;lat;lon;timestamp;pressure;altitude;pressure_sealevel;temperature;humidity
77207;BME280;66190;50.708;7.906;2023-06-26T00:02:13;96321.41;;;20.80;55.72
77207;BME280;66190;50.708;7.906;2023-06-26T00:04:39;96323.31;;;20.80;55.17
77207;BME280;66190;50.708;7.906;2023-06-26T00:07:04;96314.84;;;20.76;55.41
77207;BME280;66190;50.708;7.906;2023-06-26T00:09:30;96316.50;;;20.82;54.86
77207;BME280;66190;50.708;7.906;2023-06-26T00:11:55;96315.38;;;20.78;54.70
77207;BME280;66190;50.708;7.906;2023-06-26T00:14:20;96312.91;;;20.77;55.02
77207;BME280;66190;50.708;7.906;2023-06-26T00:16:46;96310.72;;;20.74;55.33
77207;BME280;66190;50.708;7.906;2023-06-26T00:19:15;96321.94;;;20.72;55.76
77207;BME280;66190;50.708;7.906;2023-06-26T00:21:40;96309.63;;;20.70;55.26
77207;BME280;66190;50.708;7.906;2023-06-26T00:24:06;96307.69;;;20.65;55.70
77207;BME280;66190;50.708;7.906;2023-06-26T00:26:31;96308.25;;;20.62;55.44
77207;BME280;66190;50.708;7.906;2023-06-26T00:28:56;96311.22;;;20.61;55.96
77207;BME280;66190;50.708;7.906;2023-06-26T00:31:22;96312.59;;;20.58;55.99
77207;BME280;66190;50.708;7.906;2023-06-26T00:33:47;96307.41;;;20.57;55.89
77207;BME280;66190;50.708;7.906;2023-06-26T00:36:13;96308.47;;;20.51;56.39
77207;BME280;66190;50.708;7.906;2023-06-26T00:38:38;96305.47;;;20.52;56.67
77207;BME280;66190;50.708;7.906;2023-06-26T00:41:04;96307.66;;;20.50;56.56
77207;BME280;66190;50.708;7.906;2023-06-26T00:43:30;96310.69;;;20.54;55.60
77207;BME280;66190;50.708;7.906;2023-06-26T00:45:55;96309.84;;;20.48;56.64
77207;BME280;66190;50.708;7.906;2023-06-26T00:48:21;96307.91;;;20.49;56.23
77207;BME280;66190;50.708;7.906;2023-06-26T00:50:46;96301.63;;;20.43;56.87
77207;BME280;66190;50.708;7.906;2023-06-26T00:53:12;96296.38;;;20.37;57.49
77207;BME280;66190;50.708;7.906;2023-06-26T00:55:37;96298.03;;;20.33;57.21
77207;BME280;66190;50.708;7.906;2023-06-26T00:58:03;96293.63;;;20.26;57.79
77207;BME280;66190;50.708;7.906;2023-06-26T01:00:29;96292.56;;;20.27;57.21
77207;BME280;66190;50.708;7.906;2023-06-26T01:02:54;96295.53;;;20.26;57.20
77207;BME280;66190;50.708;7.906;2023-06-26T01:05:25;96288.97;;;20.22;57.28
77207;BME280;66190;50.708;7.906;2023-06-26T01:07:50;96291.97;;;20.20;57.72
77207;BME280;66190;50.708;7.906;2023-06-26T01:10:16;96288.13;;;20.16;58.40
77207;BME280;66190;50.708;7.906;2023-06-26T01:12:42;96286.41;;;20.10;58.03
77207;BME280;66190;50.708;7.906;2023-06-26T01:15:09;96293.81;;;20.10;58.21
77207;BME280;66190;50.708;7.906;2023-06-26T01:17:36;96288.28;;;20.00;58.25
77207;BME280;66190;50.708;7.906;2023-06-26T01:20:05;96284.72;;;19.94;58.82
77207;BME280;66190;50.708;7.906;2023-06-26T01:28:17;96286.03;;;19.87;59.25
77207;BME280;66190;50.708;7.906;2023-06-26T01:30:45;96285.47;;;19.85;59.60
77207;BME280;66190;50.708;7.906;2023-06-26T01:33:12;96279.44;;;19.83;59.21
77207;BME280;66190;50.708;7.906;2023-06-26T01:35:39;96280.28;;;19.83;59.01
77207;BME280;66190;50.708;7.906;2023-06-26T01:38:16;96269.34;;;19.83;58.56
77207;BME280;66190;50.708;7.906;2023-06-26T01:40:42;96268.50;;;19.78;58.93
77207;BME280;66190;50.708;7.906;2023-06-26T01:43:19;96261.13;;;19.78;58.50
77207;BME280;66190;50.708;7.906;2023-06-26T01:45:48;96272.63;;;19.80;58.66
77207;BME280;66190;50.708;7.906;2023-06-26T01:48:18;96269.03;;;19.75;58.77
77207;BME280;66190;50.708;7.906;2023-06-26T01:50:46;96265.47;;;19.74;59.21
77207;BME280;66190;50.708;7.906;2023-06-26T01:53:17;96264.13;;;19.72;59.08
77207;BME280;66190;50.708;7.906;2023-06-26T01:55:50;96260.78;;;19.65;59.27
77207;BME280;66190;50.708;7.906;2023-06-26T01:58:20;96261.59;;;19.65;59.33
77207;BME280;66190;50.708;7.906;2023-06-26T02:00:47;96264.00;;;19.57;60.88
77207;BME280;66190;50.708;7.906;2023-06-26T02:03:12;96261.28;;;19.57;59.92
77207;BME280;66190;50.708;7.906;2023-06-26T02:05:37;96258.81;;;19.55;60.10
77207;BME280;66190;50.708;7.906;2023-06-26T02:08:03;96260.72;;;19.55;59.55
77207;BME280;66190;50.708;7.906;2023-06-26T02:10:29;96264.28;;;19.55;60.08
77207;BME280;66190;50.708;7.906;2023-06-26T02:12:55;96263.97;;;19.52;59.73
77207;BME280;66190;50.708;7.906;2023-06-26T02:15:20;96270.22;;;19.47;59.97
77207;BME280;66190;50.708;7.906;2023-06-26T02:17:45;96254.69;;;19.48;60.07
77207;BME280;66190;50.708;7.906;2023-06-26T02:20:14;96258.50;;;19.47;59.79
77207;BME280;66190;50.708;7.906;2023-06-26T02:22:40;96263.69;;;19.48;59.33
77207;BME280;66190;50.708;7.906;2023-06-26T02:25:06;96263.91;;;19.42;59.39
77207;BME280;66190;50.708;7.906;2023-06-26T02:27:31;96263.66;;;19.43;59.45
77207;BME280;66190;50.708;7.906;2023-06-26T02:29:57;96257.66;;;19.46;59.38
77207;BME280;66190;50.708;7.906;2023-06-26T02:32:22;96256.84;;;19.46;59.30
77207;BME280;66190;50.708;7.906;2023-06-26T02:34:47;96258.22;;;19.48;58.91
77207;BME280;66190;50.708;7.906;2023-06-26T02:37:13;96261.19;;;19.42;59.87
77207;BME280;66190;50.708;7.906;2023-06-26T02:39:39;96261.69;;;19.34;60.44
77207;BME280;66190;50.708;7.906;2023-06-26T02:42:04;96262.22;;;19.36;59.76
77207;BME280;66190;50.708;7.906;2023-06-26T02:44:30;96249.69;;;19.35;59.63
77207;BME280;66190;50.708;7.906;2023-06-26T02:46:55;96251.56;;;19.34;59.73
77207;BME280;66190;50.708;7.906;2023-06-26T02:49:20;96250.72;;;19.29;60.28
77207;BME280;66190;50.708;7.906;2023-06-26T02:51:46;96252.88;;;19.27;59.63
77207;BME280;66190;50.708;7.906;2023-06-26T02:54:11;96250.41;;;19.25;59.58
77207;BME280;66190;50.708;7.906;2023-06-26T02:56:36;96246.88;;;19.30;59.44
77207;BME280;66190;50.708;7.906;2023-06-26T02:59:02;96243.03;;;19.25;60.38
77207;BME280;66190;50.708;7.906;2023-06-26T03:01:28;96251.47;;;19.24;59.69
77207;BME280;66190;50.708;7.906;2023-06-26T03:03:53;96251.44;;;19.19;59.36
77207;BME280;66190;50.708;7.906;2023-06-26T03:06:18;96244.66;;;19.21;59.75
77207;BME280;66190;50.708;7.906;2023-06-26T03:08:44;96247.63;;;19.20;59.27
77207;BME280;66190;50.708;7.906;2023-06-26T03:11:10;96245.13;;;19.13;60.22
77207;BME280;66190;50.708;7.906;2023-06-26T03:13:36;96250.84;;;19.12;60.88
77207;BME280;66190;50.708;7.906;2023-06-26T03:16:02;96242.91;;;19.10;60.28
77207;BME280;66190;50.708;7.906;2023-06-26T03:18:27;96241.56;;;19.13;59.02
77207;BME280;66190;50.708;7.906;2023-06-26T03:20:54;96238.00;;;19.07;60.48
77207;BME280;66190;50.708;7.906;2023-06-26T03:23:20;96248.38;;;19.10;60.39
77207;BME280;66190;50.708;7.906;2023-06-26T03:25:46;96237.72;;;19.09;60.77
77207;BME280;66190;50.708;7.906;2023-06-26T03:28:11;96235.53;;;19.06;60.18
77207;BME280;66190;50.708;7.906;2023-06-26T03:30:37;96236.88;;;19.03;60.80
77207;BME280;66190;50.708;7.906;2023-06-26T03:33:03;96237.44;;;19.05;60.69
77207;BME280;66190;50.708;7.906;2023-06-26T03:35:28;96230.88;;;19.06;60.24
77207;BME280;66190;50.708;7.906;2023-06-26T03:37:53;96235.31;;;19.12;59.48
77207;BME280;66190;50.708;7.906;2023-06-26T03:40:19;96237.50;;;19.15;59.54
77207;BME280;66190;50.708;7.906;2023-06-26T03:42:45;96233.94;;;19.15;60.05
77207;BME280;66190;50.708;7.906;2023-06-26T03:45:10;96239.69;;;19.18;59.50
77207;BME280;66190;50.708;7.906;2023-06-26T03:47:35;96238.59;;;19.14;61.02
77207;BME280;66190;50.708;7.906;2023-06-26T03:50:01;96233.34;;;19.08;60.55
77207;BME280;66190;50.708;7.906;2023-06-26T03:52:26;96236.91;;;19.08;60.41
77207;BME280;66190;50.708;7.906;2023-06-26T03:54:52;96234.16;;;19.08;61.47
77207;BME280;66190;50.708;7.906;2023-06-26T03:57:17;96236.91;;;19.08;60.84
77207;BME280;66190;50.708;7.906;2023-06-26T03:59:42;96245.34;;;19.07;61.38
77207;BME280;66190;50.708;7.906;2023-06-26T04:02:08;96241.00;;;19.06;61.90
77207;BME280;66190;50.708;7.906;2023-06-26T04:04:33;96243.94;;;19.04;61.80
77207;BME280;66190;50.708;7.906;2023-06-26T04:06:58;96242.88;;;19.05;61.41
77207;BME280;66190;50.708;7.906;2023-06-26T04:09:25;96238.25;;;19.06;61.92
77207;BME280;66190;50.708;7.906;2023-06-26T04:11:50;96243.47;;;19.12;60.42
77207;BME280;66190;50.708;7.906;2023-06-26T04:14:16;96247.88;;;19.18;60.71
77207;BME280;66190;50.708;7.906;2023-06-26T04:16:41;96252.03;;;19.26;60.80
77207;BME280;66190;50.708;7.906;2023-06-26T04:19:07;96257.84;;;19.35;59.97
77207;BME280;66190;50.708;7.906;2023-06-26T04:21:33;96250.81;;;19.39;61.39
77207;BME280;66190;50.708;7.906;2023-06-26T04:23:58;96255.16;;;19.40;60.70
77207;BME280;66190;50.708;7.906;2023-06-26T04:26:23;96264.22;;;19.45;60.21
77207;BME280;66190;50.708;7.906;2023-06-26T04:28:49;96266.97;;;19.50;59.34
77207;BME280;66190;50.708;7.906;2023-06-26T04:31:14;96267.00;;;19.55;59.87
77207;BME280;66190;50.708;7.906;2023-06-26T04:33:40;96265.97;;;19.61;59.13
77207;BME280;66190;50.708;7.906;2023-06-26T04:36:07;96259.97;;;19.64;59.52
77207;BME280;66190;50.708;7.906;2023-06-26T04:38:32;96259.72;;;19.71;58.47
77207;BME280;66190;50.708;7.906;2023-06-26T04:40:59;96267.44;;;19.79;57.52
77207;BME280;66190;50.708;7.906;2023-06-26T04:43:24;96263.59;;;19.80;59.51
77207;BME280;66190;50.708;7.906;2023-06-26T04:45:50;96268.53;;;19.83;58.52
77207;BME280;66190;50.708;7.906;2023-06-26T04:48:15;96271.03;;;19.89;57.74
77207;BME280;66190;50.708;7.906;2023-06-26T04:50:41;96266.66;;;19.93;58.02
77207;BME280;66190;50.708;7.906;2023-06-26T04:53:06;96272.97;;;19.99;57.88
77207;BME280;66190;50.708;7.906;2023-06-26T04:55:32;96269.16;;;20.00;57.90
77207;BME280;66190;50.708;7.906;2023-06-26T04:57:57;96275.97;;;19.97;56.61
77207;BME280;66190;50.708;7.906;2023-06-26T05:00:22;96274.13;;;20.08;55.65
77207;BME280;66190;50.708;7.906;2023-06-26T05:02:50;96271.47;;;20.18;54.70
77207;BME280;66190;50.708;7.906;2023-06-26T05:05:25;96279.38;;;20.19;56.95
77207;BME280;66190;50.708;7.906;2023-06-26T05:07:52;96273.38;;;20.22;57.06
77207;BME280;66190;50.708;7.906;2023-06-26T05:10:18;96275.88;;;20.29;56.21
77207;BME280;66190;50.708;7.906;2023-06-26T05:12:43;96275.91;;;20.34;56.16
77207;BME280;66190;50.708;7.906;2023-06-26T05:15:09;96281.66;;;20.38;55.85
77207;BME280;66190;50.708;7.906;2023-06-26T05:17:34;96278.13;;;20.47;54.83
77207;BME280;66190;50.708;7.906;2023-06-26T05:19:59;96277.06;;;20.53;54.47
77207;BME280;66190;50.708;7.906;2023-06-26T05:22:25;96285.81;;;20.60;54.77
77207;BME280;66190;50.708;7.906;2023-06-26T05:24:54;96291.03;;;20.67;53.63
77207;BME280;66190;50.708;7.906;2023-06-26T05:27:20;96281.47;;;20.69;54.12
77207;BME280;66190;50.708;7.906;2023-06-26T05:29:48;96282.84;;;20.72;54.35
77207;BME280;66190;50.708;7.906;2023-06-26T05:32:15;96273.50;;;20.68;54.96
77207;BME280;66190;50.708;7.906;2023-06-26T05:34:48;96287.19;;;20.63;55.98
77207;BME280;66190;50.708;7.906;2023-06-26T05:37:19;96291.28;;;20.60;57.10
77207;BME280;66190;50.708;7.906;2023-06-26T05:39:45;96280.91;;;20.57;57.61
77207;BME280;66190;50.708;7.906;2023-06-26T05:42:11;96288.00;;;20.58;57.92
77207;BME280;66190;50.708;7.906;2023-06-26T05:44:37;96286.09;;;20.54;57.67
77207;BME280;66190;50.708;7.906;2023-06-26T05:47:02;96287.44;;;20.51;57.43
77207;BME280;66190;50.708;7.906;2023-06-26T05:49:28;96290.72;;;20.53;58.29
77207;BME280;66190;50.708;7.906;2023-06-26T05:51:53;96297.25;;;20.52;58.93
77207;BME280;66190;50.708;7.906;2023-06-26T05:54:19;96295.63;;;20.51;59.13
77207;BME280;66190;50.708;7.906;2023-06-26T05:56:45;96296.38;;;20.37;60.84
77207;BME280;66190;50.708;7.906;2023-06-26T05:59:11;96296.38;;;20.37;61.16
77207;BME280;66190;50.708;7.906;2023-06-26T06:01:37;96294.78;;;20.41;61.57
77207;BME280;66190;50.708;7.906;2023-06-26T06:04:03;96302.41;;;20.33;62.14
77207;BME280;66190;50.708;7.906;2023-06-26T06:06:28;96310.63;;;20.39;62.30
77207;BME280;66190;50.708;7.906;2023-06-26T06:08:53;96297.47;;;20.30;62.38
77207;BME280;66190;50.708;7.906;2023-06-26T06:11:19;96301.63;;;20.43;62.92
77207;BME280;66190;50.708;7.906;2023-06-26T06:13:44;96300.75;;;20.27;63.43
77207;BME280;66190;50.708;7.906;2023-06-26T06:16:09;96309.53;;;20.40;64.05
77207;BME280;66190;50.708;7.906;2023-06-26T06:18:35;96315.81;;;20.40;63.90
77207;BME280;66190;50.708;7.906;2023-06-26T06:21:00;96309.25;;;20.36;64.19
77207;BME280;66190;50.708;7.906;2023-06-26T06:23:27;96313.03;;;20.25;64.23
77207;BME280;66190;50.708;7.906;2023-06-26T06:25:52;96314.13;;;20.24;64.58
77207;BME280;66190;50.708;7.906;2023-06-26T06:28:18;96320.09;;;20.21;64.23
77207;BME280;66190;50.708;7.906;2023-06-26T06:30:43;96315.19;;;20.18;65.13
77207;BME280;66190;50.708;7.906;2023-06-26T06:33:08;96320.31;;;20.14;64.40
77207;BME280;66190;50.708;7.906;2023-06-26T06:35:34;96311.88;;;20.16;64.70
77207;BME280;66190;50.708;7.906;2023-06-26T06:37:59;96310.84;;;20.22;64.92
77207;BME280;66190;50.708;7.906;2023-06-26T06:40:24;96305.28;;;20.12;64.64
77207;BME280;66190;50.708;7.906;2023-06-26T06:42:51;96317.34;;;20.16;64.95
77207;BME280;66190;50.708;7.906;2023-06-26T06:45:16;96320.69;;;20.33;66.04
77207;BME280;66190;50.708;7.906;2023-06-26T06:47:41;96327.28;;;20.42;65.03
77207;BME280;66190;50.708;7.906;2023-06-26T06:50:07;96324.06;;;20.50;65.35
77207;BME280;66190;50.708;7.906;2023-06-26T06:52:39;96320.81;;;20.63;65.34
77207;BME280;66190;50.708;7.906;2023-06-26T06:55:06;96314.28;;;20.74;63.82
77207;BME280;66190;50.708;7.906;2023-06-26T06:57:35;96307.22;;;20.93;65.29
77207;BME280;66190;50.708;7.906;2023-06-26T07:00:07;96324.19;;;20.95;63.99
77207;BME280;66190;50.708;7.906;2023-06-26T07:02:39;96334.03;;;20.91;63.56
77207;BME280;66190;50.708;7.906;2023-06-26T07:05:05;96334.06;;;21.01;63.85
77207;BME280;66190;50.708;7.906;2023-06-26T07:07:32;96337.31;;;20.88;63.69
77207;BME280;66190;50.708;7.906;2023-06-26T07:10:06;96340.25;;;20.72;64.74
77207;BME280;66190;50.708;7.906;2023-06-26T07:12:33;96352.50;;;20.54;64.73
77207;BME280;66190;50.708;7.906;2023-06-26T07:15:00;96353.09;;;20.14;65.98
77207;BME280;66190;50.708;7.906;2023-06-26T07:17:25;96346.19;;;20.02;66.73
77207;BME280;66190;50.708;7.906;2023-06-26T07:19:51;96352.81;;;20.11;66.87
77207;BME280;66190;50.708;7.906;2023-06-26T07:22:16;96352.63;;;20.22;67.73
77207;BME280;66190;50.708;7.906;2023-06-26T07:24:44;96347.13;;;20.17;67.02
77207;BME280;66190;50.708;7.906;2023-06-26T07:27:09;96343.31;;;20.18;66.42
77207;BME280;66190;50.708;7.906;2023-06-26T07:29:34;96345.78;;;20.20;67.34
77207;BME280;66190;50.708;7.906;2023-06-26T07:32:00;96331.34;;;20.29;66.34
77207;BME280;66190;50.708;7.906;2023-06-26T07:34:25;96327.50;;;20.25;65.73
77207;BME280;66190;50.708;7.906;2023-06-26T07:36:50;96344.41;;;20.17;66.21
77207;BME280;66190;50.708;7.906;2023-06-26T07:39:16;96362.50;;;20.28;66.15
77207;BME280;66190;50.708;7.906;2023-06-26T07:41:41;96363.63;;;20.33;66.25
77207;BME280;66190;50.708;7.906;2023-06-26T07:44:07;96364.94;;;20.25;65.91
77207;BME280;66190;50.708;7.906;2023-06-26T07:46:32;96365.56;;;20.42;66.16
77207;BME280;66190;50.708;7.906;2023-06-26T07:48:57;96360.03;;;20.27;66.15
77207;BME280;66190;50.708;7.906;2023-06-26T07:51:23;96365.53;;;20.32;65.86
77207;BME280;66190;50.708;7.906;2023-06-26T07:53:49;96358.19;;;20.43;66.53
77207;BME280;66190;50.708;7.906;2023-06-26T07:56:14;96348.41;;;20.52;66.24
77207;BME280;66190;50.708;7.906;2023-06-26T07:58:40;96358.03;;;20.69;66.33
77207;BME280;66190;50.708;7.906;2023-06-26T08:01:05;96343.31;;;20.90;66.01
77207;BME280;66190;50.708;7.906;2023-06-26T08:03:30;96354.34;;;21.10;65.49
77207;BME280;66190;50.708;7.906;2023-06-26T08:05:56;96346.41;;;21.14;64.78
77207;BME280;66190;50.708;7.906;2023-06-26T08:08:22;96351.59;;;21.25;63.31
77207;BME280;66190;50.708;7.906;2023-06-26T08:10:47;96349.72;;;21.36;62.36
77207;BME280;66190;50.708;7.906;2023-06-26T08:13:13;96353.00;;;21.38;61.89
77207;BME280;66190;50.708;7.906;2023-06-26T08:15:38;96368.59;;;21.27;61.20
77207;BME280;66190;50.708;7.906;2023-06-26T08:18:04;96370.47;;;21.07;62.99
77207;BME280;66190;50.708;7.906;2023-06-26T08:20:29;96373.94;;;20.87;64.35
77207;BME280;66190;50.708;7.906;2023-06-26T08:22:55;96391.34;;;20.61;64.85
77207;BME280;66190;50.708;7.906;2023-06-26T08:25:20;96380.03;;;20.38;66.80
77207;BME280;66190;50.708;7.906;2023-06-26T08:27:46;96378.88;;;20.28;67.25
77207;BME280;66190;50.708;7.906;2023-06-26T08:30:11;96372.31;;;20.29;67.75
77207;BME280;66190;50.708;7.906;2023-06-26T08:32:38;96380.78;;;20.23;68.35
77207;BME280;66190;50.708;7.906;2023-06-26T08:35:05;96385.16;;;20.24;68.73
77207;BME280;66190;50.708;7.906;2023-06-26T08:37:31;96399.91;;;19.91;69.36
77207;BME280;66190;50.708;7.906;2023-06-26T08:40:00;96398.31;;;19.95;69.55
77207;BME280;66190;50.708;7.906;2023-06-26T08:42:26;96394.75;;;19.95;69.47
77207;BME280;66190;50.708;7.906;2023-06-26T08:44:51;96393.31;;;20.19;69.49
77207;BME280;66190;50.708;7.906;2023-06-26T08:47:18;96395.00;;;20.25;68.96
77207;BME280;66190;50.708;7.906;2023-06-26T08:49:52;96402.25;;;20.51;68.49
77207;BME280;66190;50.708;7.906;2023-06-26T08:52:23;96403.06;;;20.52;67.94
77207;BME280;66190;50.708;7.906;2023-06-26T08:54:55;96399.28;;;20.63;68.40
77207;BME280;66190;50.708;7.906;2023-06-26T08:57:23;96400.38;;;20.62;66.81
77207;BME280;66190;50.708;7.906;2023-06-26T08:59:49;96381.25;;;20.62;67.70
77207;BME280;66190;50.708;7.906;2023-06-26T09:02:15;96390.84;;;20.69;67.51
77207;BME280;66190;50.708;7.906;2023-06-26T09:04:40;96406.69;;;20.62;67.69
77207;BME280;66190;50.708;7.906;2023-06-26T09:07:07;96412.16;;;20.67;67.30
77207;BME280;66190;50.708;7.906;2023-06-26T09:09:33;96409.50;;;20.87;67.79
77207;BME280;66190;50.708;7.906;2023-06-26T09:11:58;96426.72;;;20.78;66.48
77207;BME280;66190;50.708;7.906;2023-06-26T09:14:24;96426.44;;;20.84;66.84
77207;BME280;66190;50.708;7.906;2023-06-26T09:16:50;96422.09;;;20.88;66.85
77207;BME280;66190;50.708;7.906;2023-06-26T09:19:15;96426.75;;;20.88;66.34
77207;BME280;66190;50.708;7.906;2023-06-26T09:21:42;96427.53;;;20.83;66.54
77207;BME280;66190;50.708;7.906;2023-06-26T09:24:09;96423.75;;;20.94;67.64
77207;BME280;66190;50.708;7.906;2023-06-26T09:26:38;96419.66;;;20.97;66.14
77207;BME280;66190;50.708;7.906;2023-06-26T09:29:05;96430.25;;;20.83;67.12
77207;BME280;66190;50.708;7.906;2023-06-26T09:31:30;96429.31;;;20.58;67.40
77207;BME280;66190;50.708;7.906;2023-06-26T09:33:59;96430.19;;;20.63;68.35
77207;BME280;66190;50.708;7.906;2023-06-26T09:36:30;96428.00;;;20.60;68.70
77207;BME280;66190;50.708;7.906;2023-06-26T09:39:03;96433.00;;;20.83;66.80
77207;BME280;66190;50.708;7.906;2023-06-26T09:41:29;96431.38;;;20.92;65.56
77207;BME280;66190;50.708;7.906;2023-06-26T09:43:58;96436.28;;;20.85;65.11
77207;BME280;66190;50.708;7.906;2023-06-26T09:46:27;96426.19;;;20.91;65.84
77207;BME280;66190;50.708;7.906;2023-06-26T09:49:04;96432.03;;;21.09;64.35
77207;BME280;66190;50.708;7.906;2023-06-26T09:51:34;96438.25;;;20.95;62.64
77207;BME280;66190;50.708;7.906;2023-06-26T09:54:01;96437.75;;;21.03;63.18
77207;BME280;66190;50.708;7.906;2023-06-26T09:56:28;96444.06;;;21.08;59.91
77207;BME280;66190;50.708;7.906;2023-06-26T09:58:58;96444.88;;;20.99;61.11
77207;BME280;66190;50.708;7.906;2023-06-26T10:01:24;96445.41;;;21.06;62.53
77207;BME280;66190;50.708;7.906;2023-06-26T10:03:49;96442.19;;;21.14;62.57
77207;BME280;66190;50.708;7.906;2023-06-26T10:06:19;96440.84;;;21.26;62.25
77207;BME280;66190;50.708;7.906;2023-06-26T10:08:45;96446.06;;;21.33;62.74
77207;BME280;66190;50.708;7.906;2023-06-26T10:11:14;96431.53;;;21.27;61.90
77207;BME280;66190;50.708;7.906;2023-06-26T10:13:42;96429.91;;;21.31;62.53
77207;BME280;66190;50.708;7.906;2023-06-26T10:16:11;96440.84;;;21.31;62.72
77207;BME280;66190;50.708;7.906;2023-06-26T10:18:39;96434.28;;;21.32;63.41
77207;BME280;66190;50.708;7.906;2023-06-26T10:21:08;96424.41;;;21.21;64.01
77207;BME280;66190;50.708;7.906;2023-06-26T10:23:34;96445.22;;;21.27;62.50
77207;BME280;66190;50.708;7.906;2023-06-26T10:26:01;96439.19;;;21.25;63.33
77207;BME280;66190;50.708;7.906;2023-06-26T10:28:28;96438.91;;;21.17;62.68
77207;BME280;66190;50.708;7.906;2023-06-26T10:30:55;96437.56;;;21.34;63.31
77207;BME280;66190;50.708;7.906;2023-06-26T10:33:22;96449.09;;;21.36;62.60
77207;BME280;66190;50.708;7.906;2023-06-26T10:35:48;96458.91;;;21.27;62.52
77207;BME280;66190;50.708;7.906;2023-06-26T10:38:14;96458.03;;;21.12;62.12
77207;BME280;66190;50.708;7.906;2023-06-26T10:40:47;96455.06;;;21.23;62.74
77207;BME280;66190;50.708;7.906;2023-06-26T10:43:14;96454.56;;;21.36;63.30
77207;BME280;66190;50.708;7.906;2023-06-26T10:45:48;96454.53;;;21.31;62.78
77207;BME280;66190;50.708;7.906;2023-06-26T10:48:18;96460.00;;;21.21;60.94
77207;BME280;66190;50.708;7.906;2023-06-26T10:50:47;96469.53;;;21.09;58.58
77207;BME280;66190;50.708;7.906;2023-06-26T10:53:14;96467.59;;;21.09;58.55
77207;BME280;66190;50.708;7.906;2023-06-26T10:55:42;96470.59;;;21.08;58.05
77207;BME280;66190;50.708;7.906;2023-06-26T10:58:40;96474.22;;;21.23;59.22
77207;BME280;66190;50.708;7.906;2023-06-26T11:03:39;96478.16;;;21.63;57.60
77207;BME280;66190;50.708;7.906;2023-06-26T11:06:09;96475.69;;;21.56;56.05
77207;BME280;66190;50.708;7.906;2023-06-26T11:08:49;96474.00;;;21.35;56.64
77207;BME280;66190;50.708;7.906;2023-06-26T11:11:15;96471.56;;;21.64;58.31
77207;BME280;66190;50.708;7.906;2023-06-26T11:13:41;96465.53;;;21.57;55.70
77207;BME280;66190;50.708;7.906;2023-06-26T11:16:07;96463.69;;;21.92;57.67
77207;BME280;66190;50.708;7.906;2023-06-26T11:18:36;96474.66;;;22.02;57.21
77207;BME280;66190;50.708;7.906;2023-06-26T11:21:10;96485.34;;;22.04;57.92
77207;BME280;66190;50.708;7.906;2023-06-26T11:23:37;96492.16;;;21.81;59.01
77207;BME280;66190;50.708;7.906;2023-06-26T11:26:19;96477.59;;;21.66;57.63
77207;BME280;66190;50.708;7.906;2023-06-26T11:28:51;96480.94;;;21.78;57.53
77207;BME280;66190;50.708;7.906;2023-06-26T11:31:33;96475.13;;;21.64;54.03
77207;BME280;66190;50.708;7.906;2023-06-26T11:34:00;96473.00;;;21.86;55.82
77207;BME280;66190;50.708;7.906;2023-06-26T11:36:27;96476.25;;;21.63;53.39
77207;BME280;66190;50.708;7.906;2023-06-26T11:38:54;96489.38;;;21.71;54.42
77207;BME280;66190;50.708;7.906;2023-06-26T11:41:20;96477.66;;;21.81;55.49
77207;BME280;66190;50.708;7.906;2023-06-26T11:43:45;96483.94;;;21.86;56.03
77207;BME280;66190;50.708;7.906;2023-06-26T11:46:11;96477.06;;;21.74;56.38
77207;BME280;66190;50.708;7.906;2023-06-26T11:48:37;96480.69;;;22.09;59.42
77207;BME280;66190;50.708;7.906;2023-06-26T11:51:05;96474.38;;;21.89;51.65
77207;BME280;66190;50.708;7.906;2023-06-26T11:53:31;96483.94;;;21.96;51.69
77207;BME280;66190;50.708;7.906;2023-06-26T11:55:56;96485.31;;;22.14;54.75
77207;BME280;66190;50.708;7.906;2023-06-26T11:58:22;96489.19;;;21.98;55.56
77207;BME280;66190;50.708;7.906;2023-06-26T12:00:48;96492.72;;;21.83;53.51
77207;BME280;66190;50.708;7.906;2023-06-26T12:03:14;96497.97;;;22.05;54.42
77207;BME280;66190;50.708;7.906;2023-06-26T12:05:40;96505.59;;;21.83;51.78
77207;BME280;66190;50.708;7.906;2023-06-26T12:08:06;96503.13;;;21.91;52.16
77207;BME280;66190;50.708;7.906;2023-06-26T12:10:33;96500.94;;;22.08;51.92
77207;BME280;66190;50.708;7.906;2023-06-26T12:12:58;96502.88;;;22.13;51.54
77207;BME280;66190;50.708;7.906;2023-06-26T12:15:27;96513.47;;;21.64;54.04
77207;BME280;66190;50.708;7.906;2023-06-26T12:17:53;96508.06;;;21.79;54.67
77207;BME280;66190;50.708;7.906;2023-06-26T12:20:20;96530.00;;;22.04;51.53
77207;BME280;66190;50.708;7.906;2023-06-26T12:22:47;96538.22;;;22.19;48.80
77207;BME280;66190;50.708;7.906;2023-06-26T12:25:13;96536.00;;;21.96;47.58
77207;BME280;66190;50.708;7.906;2023-06-26T12:27:38;96516.31;;;22.19;46.94
77207;BME280;66190;50.708;7.906;2023-06-26T12:30:08;96510.00;;;22.44;47.48
77207;BME280;66190;50.708;7.906;2023-06-26T12:32:34;96520.38;;;22.52;49.37
77207;BME280;66190;50.708;7.906;2023-06-26T12:35:00;96528.91;;;21.95;51.02
77207;BME280;66190;50.708;7.906;2023-06-26T12:37:26;96523.34;;;21.70;51.84
77207;BME280;66190;50.708;7.906;2023-06-26T12:39:57;96531.91;;;21.79;51.77
77207;BME280;66190;50.708;7.906;2023-06-26T12:42:24;96518.78;;;22.06;53.30
77207;BME280;66190;50.708;7.906;2023-06-26T12:44:50;96531.94;;;22.39;50.98
77207;BME280;66190;50.708;7.906;2023-06-26T12:47:17;96524.53;;;22.19;46.53
77207;BME280;66190;50.708;7.906;2023-06-26T12:49:44;96529.72;;;21.96;45.04
77207;BME280;66190;50.708;7.906;2023-06-26T12:52:15;96518.22;;;21.79;47.93
77207;BME280;66190;50.708;7.906;2023-06-26T12:54:42;96511.09;;;22.13;49.36
77207;BME280;66190;50.708;7.906;2023-06-26T12:57:09;96506.69;;;22.42;47.29
77207;BME280;66190;50.708;7.906;2023-06-26T12:59:36;96511.94;;;22.59;46.82
77207;BME280;66190;50.708;7.906;2023-06-26T13:02:02;96522.56;;;22.85;48.94
77207;BME280;66190;50.708;7.906;2023-06-26T13:04:29;96531.66;;;22.25;48.62
77207;BME280;66190;50.708;7.906;2023-06-26T13:06:54;96516.31;;;21.99;49.12